Time,TemperatureF,DewpointF,PressureIn,WindDirection,WindDirectionDegrees,WindSpeedMPH,WindSpeedGustMPH,Humidity,HourlyPrecipIn,Conditions,Clouds,dailyrainin,SoftwareType,DateUTC
2013-07-21 00:00:00,81.3,55.4,29.76,South,186,0.0,0.0,41,0.00,,---,0.00,VWS V13.01,2013-07-21 07:00:00,
2013-07-21 00:30:00,80.6,55.4,29.76,SSW,193,0.0,0.0,42,0.00,,---,0.00,VWS V13.01,2013-07-21 07:30:00,
2013-07-21 01:00:00,79.9,56.7,29.76,South,184,5.0,7.0,44,0.00,,---,0.00,VWS V13.01,2013-07-21 08:00:00,
2013-07-21 01:30:00,79.2,57.2,29.76,South,187,1.0,8.0,47,0.00,,---,0.00,VWS V13.01,2013-07-21 08:30:00,
2013-07-21 02:00:00,78.6,58.4,29.75,South,186,10.0,10.0,50,0.00,,---,0.00,VWS V13.01,2013-07-21 09:00:00,
2013-07-21 02:30:00,78.4,58.8,29.74,SSW,193,3.0,11.0,51,0.00,,---,0.00,VWS V13.01,2013-07-21 09:30:00,
2013-07-21 03:00:00,78.0,57.9,29.76,South,187,1.0,9.0,51,0.00,,---,0.00,VWS V13.01,2013-07-21 10:00:00,
2013-07-21 03:30:00,77.9,58.3,29.76,SSE,161,0.0,8.0,51,0.00,,---,0.00,VWS V13.01,2013-07-21 10:30:00,
2013-07-21 04:00:00,76.3,57.4,29.79,NE,48,0.0,0.0,52,0.00,,---,0.00,VWS V13.01,2013-07-21 11:00:00,
2013-07-21 04:30:00,75.0,56.2,29.78,NE,38,0.0,0.0,52,0.00,,---,0.00,VWS V13.01,2013-07-21 11:30:00,
2013-07-21 05:00:00,74.5,57.3,29.77,NE,36,0.0,0.0,55,0.00,,---,0.00,VWS V13.01,2013-07-21 12:00:00,
2013-07-21 05:30:00,75.8,58.0,29.76,NE,36,0.0,0.0,54,0.00,,---,0.00,VWS V13.01,2013-07-21 12:30:00,
2013-07-21 06:00:00,76.8,57.9,29.76,SW,220,0.0,0.0,52,0.00,,---,0.00,VWS V13.01,2013-07-21 13:00:00,
2013-07-21 06:30:00,77.4,59.0,29.77,SSW,195,0.0,0.0,52,0.00,,---,0.00,VWS V13.01,2013-07-21 13:30:00,
2013-07-21 07:00:00,76.6,56.0,29.76,SSW,199,0.0,0.0,49,0.00,,---,0.00,VWS V13.01,2013-07-21 14:00:00,
2013-07-21 07:30:00,77.2,55.4,29.76,SSW,199,0.0,0.0,47,0.00,,---,0.00,VWS V13.01,2013-07-21 14:30:00,
2013-07-21 08:00:00,80.1,55.6,29.77,South,172,0.0,0.0,43,0.00,,---,0.00,VWS V13.01,2013-07-21 15:00:00,
2013-07-21 08:30:00,81.6,52.8,29.78,SSW,200,0.0,0.0,37,0.00,,---,0.00,VWS V13.01,2013-07-21 15:30:00,
2013-07-21 09:00:00,83.2,51.9,29.81,SSW,200,0.0,0.0,34,0.00,,---,0.00,VWS V13.01,2013-07-21 16:00:00,
2013-07-21 09:30:00,84.3,52.1,29.80,SSW,207,0.0,0.0,33,0.00,,---,0.00,VWS V13.01,2013-07-21 16:30:00,
2013-07-21 10:00:00,85.5,54.0,29.81,East,90,0.0,0.0,34,0.00,,---,0.00,VWS V13.01,2013-07-21 17:00:00,
2013-07-21 10:30:00,87.2,54.6,29.81,ENE,73,1.0,6.0,33,0.00,,---,0.00,VWS V13.01,2013-07-21 17:30:00,
2013-07-21 11:00:00,90.0,55.3,29.81,SE,140,4.0,8.0,31,0.00,,---,0.00,VWS V13.01,2013-07-21 18:00:00,
2013-07-21 11:30:00,91.8,56.0,29.80,ESE,107,3.0,8.0,30,0.00,,---,0.00,VWS V13.01,2013-07-21 18:30:00,
2013-07-21 12:00:00,92.7,54.8,29.80,SE,129,3.0,7.0,28,0.00,,---,0.00,VWS V13.01,2013-07-21 19:00:00,
2013-07-21 12:30:00,92.0,54.3,29.79,South,170,5.0,10.0,28,0.00,,---,0.00,VWS V13.01,2013-07-21 19:30:00,
2013-07-21 13:00:00,92.2,56.3,29.79,ESE,105,1.0,7.0,30,0.00,,---,0.00,VWS V13.01,2013-07-21 20:00:00,
2013-07-21 13:29:00,90.9,58.7,29.80,SSE,163,7.0,15.0,34,0.00,,---,0.00,VWS V13.01,2013-07-21 20:29:00,
2013-07-21 14:00:00,89.1,59.5,29.82,South,177,6.0,15.0,37,0.00,,---,0.00,VWS V13.01,2013-07-21 21:00:00,
2013-07-21 14:30:00,87.9,59.2,29.81,SE,137,0.0,16.0,38,0.00,,---,0.00,VWS V13.01,2013-07-21 21:30:00,
2013-07-21 15:00:00,87.7,59.7,29.80,South,182,0.0,0.0,39,0.00,,---,0.00,VWS V13.01,2013-07-21 22:00:00,
2013-07-21 15:30:00,87.4,59.4,29.81,South,174,0.0,0.0,39,0.00,,---,0.00,VWS V13.01,2013-07-21 22:30:00,
2013-07-21 16:01:00,86.4,59.9,29.79,South,169,0.0,0.0,41,0.00,,---,0.00,VWS V13.01,2013-07-21 23:01:00,
2013-07-21 16:30:00,86.1,58.3,29.80,South,173,0.0,0.0,39,0.00,,---,0.00,VWS V13.01,2013-07-21 23:30:00,
2013-07-21 17:00:00,85.5,53.1,29.78,South,175,0.0,0.0,33,0.00,,---,0.00,VWS V13.01,2013-07-22 00:00:00,
2013-07-21 17:30:00,86.1,51.1,29.78,South,170,0.0,0.0,30,0.00,,---,0.00,VWS V13.01,2013-07-22 00:30:00,
2013-07-21 18:00:00,85.4,51.4,29.77,SSE,158,0.0,0.0,31,0.00,,---,0.00,VWS V13.01,2013-07-22 01:00:00,
2013-07-21 18:30:00,84.6,49.8,29.80,SSE,147,0.0,0.0,30,0.00,,---,0.00,VWS V13.01,2013-07-22 01:30:00,
2013-07-21 19:00:00,83.1,45.7,29.78,South,172,0.0,0.0,27,0.00,,---,0.00,VWS V13.01,2013-07-22 02:00:00,
2013-07-21 19:30:00,82.3,45.0,29.78,SSE,166,0.0,0.0,27,0.00,,---,0.00,VWS V13.01,2013-07-22 02:30:00,
2013-07-21 20:00:00,81.4,47.0,29.80,SSE,163,0.0,0.0,30,0.00,,---,0.00,VWS V13.01,2013-07-22 03:00:00,
2013-07-21 20:30:00,80.7,44.6,29.82,South,187,0.0,0.0,28,0.00,,---,0.00,VWS V13.01,2013-07-22 03:30:00,
2013-07-21 21:00:00,80.5,43.5,29.82,South,170,0.0,0.0,27,0.00,,---,0.00,VWS V13.01,2013-07-22 04:00:00,
2013-07-21 21:30:00,80.5,43.5,29.84,SSE,164,0.0,0.0,27,0.00,,---,0.00,VWS V13.01,2013-07-22 04:30:00,
2013-07-21 22:00:00,77.2,48.2,29.86,South,170,0.0,0.0,36,0.00,,---,0.00,VWS V13.01,2013-07-22 05:00:00,
2013-07-21 22:30:00,76.1,50.0,29.85,South,183,0.0,0.0,40,0.00,,---,0.00,VWS V13.01,2013-07-22 05:30:00,
2013-07-21 23:00:00,76.5,48.3,29.88,SSE,161,0.0,0.0,37,0.00,,---,0.00,VWS V13.01,2013-07-22 06:00:00,
2013-07-21 23:30:00,76.3,48.1,29.86,South,187,0.0,0.0,37,0.00,,---,0.00,VWS V13.01,2013-07-22 06:30:00,